Time;durP1;ratioP1;P1;durP2;ratioP2;P2;SDS_P1;SDS_P2;PMS_P1;PMS_P2;Temp;Humidity;BMP_temperature;BMP_pressure;BME280_temperature;BME280_humidity;BME280_pressure;Samples;Min_cycle;Max_cycle;Signal;HPM_P1;HPM_P2
2022/09/02 00:02:04;;;;;;;2.80;2.10;;;;;;;17.39;56.60;96803.41;4898913;29;20108;-81
2022/09/02 00:04:34;;;;;;;2.35;2.03;;;;;;;17.37;56.79;96800.19;4898224;29;20049;-81
2022/09/02 00:07:01;;;;;;;7.72;2.30;;;;;;;17.36;56.66;96800.41;4897546;29;20091;-81
2022/09/02 00:09:29;;;;;;;2.20;2.10;;;;;;;17.30;56.07;96797.63;4897576;29;20515;-81
2022/09/02 00:11:56;;;;;;;2.00;1.90;;;;;;;17.25;56.73;96807.22;4897760;29;20137;-81
2022/09/02 00:14:34;;;;;;;2.25;1.90;;;;;;;17.23;57.98;96796.91;4897858;29;20124;-81
2022/09/02 00:17:03;;;;;;;2.80;2.50;;;;;;;17.29;58.64;96803.09;4897552;29;20091;-81
2022/09/02 00:19:31;;;;;;;2.15;2.05;;;;;;;17.30;57.77;96799.47;4897550;29;20080;-81
2022/09/02 00:22:02;;;;;;;2.38;2.00;;;;;;;17.29;57.38;96803.09;4897392;29;20084;-81
2022/09/02 00:24:30;;;;;;;2.38;1.92;;;;;;;17.29;57.56;96792.56;4897740;29;20510;-81
2022/09/02 00:26:58;;;;;;;2.80;2.38;;;;;;;17.27;56.46;96792.81;4897768;29;20109;-81
2022/09/02 00:29:26;;;;;;;3.33;2.25;;;;;;;17.22;58.17;96782.09;4897185;29;20092;-81
2022/09/02 00:31:54;;;;;;;2.47;2.17;;;;;;;17.23;58.14;96783.72;4897018;29;20121;-81
2022/09/02 00:34:22;;;;;;;2.28;1.95;;;;;;;17.22;57.58;96782.09;4897485;29;20079;-81
2022/09/02 00:36:49;;;;;;;3.80;2.38;;;;;;;17.22;56.98;96786.56;4897065;29;20060;-81
2022/09/02 00:39:18;;;;;;;2.30;2.10;;;;;;;17.12;56.14;96775.72;4897427;29;20077;-81
2022/09/02 00:41:46;;;;;;;2.83;2.42;;;;;;;17.00;56.40;96779.06;4897353;29;20140;-81
2022/09/02 00:44:16;;;;;;;3.03;2.25;;;;;;;16.92;56.62;96776.72;4897603;29;20053;-81
2022/09/02 00:46:45;;;;;;;2.78;2.30;;;;;;;16.92;57.48;96774.06;4897238;29;20057;-81
2022/09/02 00:49:17;;;;;;;2.50;2.10;;;;;;;16.92;57.56;96771.44;4897116;29;20140;-81
2022/09/02 00:51:51;;;;;;;2.13;1.98;;;;;;;16.92;58.23;96768.00;4897188;29;20057;-81
2022/09/02 00:54:22;;;;;;;2.22;2.08;;;;;;;16.88;57.16;96760.56;4897511;29;20096;-81
2022/09/02 00:56:51;;;;;;;5.70;2.90;;;;;;;16.86;56.92;96770.50;4897304;29;20099;-81
2022/09/02 00:59:27;;;;;;;2.50;2.30;;;;;;;16.87;58.43;96764.19;4897094;29;20056;-81
2022/09/02 01:01:54;;;;;;;2.42;2.22;;;;;;;16.91;58.06;96761.16;4898691;29;20057;-81
2022/09/02 01:04:22;;;;;;;2.40;2.20;;;;;;;16.92;58.07;96760.09;4900594;29;20099;-81
2022/09/02 01:06:51;;;;;;;2.40;2.20;;;;;;;16.92;57.92;96760.91;4900688;29;20118;-81
2022/09/02 01:09:20;;;;;;;3.17;2.22;;;;;;;16.93;59.30;96761.72;4900566;29;20095;-81
2022/09/02 01:11:53;;;;;;;2.72;2.45;;;;;;;16.91;57.18;96764.56;4900064;29;20052;-81
2022/09/02 01:14:22;;;;;;;2.22;2.03;;;;;;;16.89;58.50;96767.41;4900649;29;20408;-81
2022/09/02 01:16:58;;;;;;;2.08;1.88;;;;;;;16.91;58.64;96759.31;4924360;29;20120;-80
2022/09/02 01:19:29;;;;;;;2.58;2.38;;;;;;;16.90;58.14;96757.69;4924038;29;20566;-81
2022/09/02 01:21:58;;;;;;;2.80;1.92;;;;;;;16.89;58.50;96764.78;4908405;29;20578;-81
2022/09/02 01:24:29;;;;;;;2.20;2.00;;;;;;;16.85;57.18;96760.16;4901601;29;20064;-81
2022/09/02 01:26:59;;;;;;;2.15;2.03;;;;;;;16.76;57.16;96756.19;4900750;29;20123;-81
2022/09/02 01:29:28;;;;;;;2.13;2.03;;;;;;;16.70;57.20;96763.09;4900678;29;20064;-81
2022/09/02 01:31:56;;;;;;;2.08;1.88;;;;;;;16.68;58.42;96765.16;4900196;29;20144;-81
2022/09/02 01:34:24;;;;;;;3.05;2.17;;;;;;;16.67;57.93;96763.56;4900700;29;20057;-81
2022/09/02 01:36:52;;;;;;;3.08;2.00;;;;;;;16.68;58.14;96767.78;4899855;29;20080;-81
2022/09/02 01:39:20;;;;;;;2.10;2.00;;;;;;;16.68;58.61;96765.97;4899733;29;20075;-81
2022/09/02 01:41:48;;;;;;;2.17;1.80;;;;;;;16.68;58.77;96750.19;4900109;29;20132;-81
2022/09/02 01:44:16;;;;;;;2.55;2.25;;;;;;;16.69;57.87;96756.25;4899990;29;20053;-81
2022/09/02 01:46:45;;;;;;;2.28;2.08;;;;;;;16.66;57.92;96756.66;4900154;29;20052;-81
2022/09/02 01:49:13;;;;;;;3.35;2.03;;;;;;;16.68;58.78;96765.16;4899699;29;20080;-81
2022/09/02 01:51:40;;;;;;;3.25;2.47;;;;;;;16.64;57.55;96758.72;4899611;29;20072;-80
2022/09/02 01:54:08;;;;;;;2.10;2.00;;;;;;;16.54;56.90;96759.19;4899768;29;20142;-81
2022/09/02 01:56:37;;;;;;;2.70;2.50;;;;;;;16.45;56.97;96757.88;4899552;29;20571;-81
2022/09/02 01:59:06;;;;;;;1.70;1.60;;;;;;;16.42;58.34;96755.63;4899643;29;20052;-81
2022/09/02 02:01:34;;;;;;;2.22;2.08;;;;;;;16.45;58.93;96757.88;4899379;29;20058;-80
2022/09/02 02:04:03;;;;;;;2.30;2.10;;;;;;;16.47;58.77;96750.56;4899926;29;20062;-81
2022/09/02 02:06:30;;;;;;;2.60;2.00;;;;;;;16.42;57.45;96756.47;4899517;29;20053;-81
2022/09/02 02:08:58;;;;;;;3.13;2.22;;;;;;;16.37;57.57;96748.38;4899766;29;20056;-81
2022/09/02 02:11:26;;;;;;;5.15;2.40;;;;;;;16.33;57.31;96757.72;4902458;29;20127;-81
2022/09/02 02:13:55;;;;;;;2.38;2.17;;;;;;;16.26;57.01;96755.16;4904456;29;20057;-81
2022/09/02 02:16:22;;;;;;;2.28;2.15;;;;;;;16.23;57.87;96752.16;4903944;29;20116;-81
2022/09/02 02:18:50;;;;;;;2.38;2.15;;;;;;;16.25;59.25;96750.13;4899744;29;20060;-81
2022/09/02 02:21:18;;;;;;;2.00;1.80;;;;;;;16.30;61.06;96750.28;4899494;29;20057;-81
2022/09/02 02:23:47;;;;;;;1.92;1.80;;;;;;;16.32;59.79;96742.97;4899449;29;20059;-81
2022/09/02 02:26:15;;;;;;;2.15;2.05;;;;;;;16.33;60.74;96752.47;4899091;29;20108;-81
2022/09/02 02:28:42;;;;;;;2.38;2.15;;;;;;;16.31;57.93;96751.06;4899326;29;20052;-81
2022/09/02 02:31:12;;;;;;;3.47;2.22;;;;;;;16.27;57.93;96753.34;4899101;29;20135;-81
2022/09/02 02:33:39;;;;;;;3.60;2.20;;;;;;;16.24;58.58;96748.50;4898952;29;20060;-81
2022/09/02 02:36:08;;;;;;;1.83;1.73;;;;;;;16.24;60.22;96748.50;4899064;29;20336;-80
2022/09/02 02:38:38;;;;;;;2.67;2.47;;;;;;;16.23;58.19;96744.25;4899060;29;20071;-81
2022/09/02 02:41:06;;;;;;;2.40;2.00;;;;;;;16.16;57.63;96746.13;4898579;29;20499;-81
2022/09/02 02:43:34;;;;;;;2.20;1.88;;;;;;;16.13;59.51;96751.81;4898921;29;20108;-81
2022/09/02 02:46:03;;;;;;;2.78;1.70;;;;;;;16.14;59.32;96753.44;4898681;29;20103;-81
2022/09/02 02:48:32;;;;;;;2.55;1.80;;;;;;;16.15;59.57;96757.69;4899070;29;20156;-81
2022/09/02 02:51:00;;;;;;;2.45;2.05;;;;;;;16.14;57.99;96758.72;4898547;29;20201;-81
2022/09/02 02:53:30;;;;;;;1.80;1.70;;;;;;;16.08;57.79;96749.03;4898678;29;20116;-81
2022/09/02 02:55:58;;;;;;;2.75;1.90;;;;;;;16.04;57.56;96754.69;4899163;29;20263;-81
2022/09/02 02:58:26;;;;;;;2.22;2.00;;;;;;;16.02;57.73;96751.47;4898568;29;20148;-81
2022/09/02 03:00:53;;;;;;;2.95;2.10;;;;;;;16.04;58.90;96749.44;4898558;29;20059;-80
2022/09/02 03:03:21;;;;;;;2.20;2.00;;;;;;;16.03;58.07;96749.66;4898412;29;20076;-81
2022/09/02 03:05:51;;;;;;;2.08;1.85;;;;;;;16.03;58.50;96747.03;4898317;29;20541;-81
2022/09/02 03:08:20;;;;;;;1.90;1.77;;;;;;;15.97;57.59;96738.16;4897929;29;20080;-81
2022/09/02 03:10:53;;;;;;;1.77;1.67;;;;;;;15.95;58.39;96734.94;4897727;29;20511;-80
2022/09/02 03:13:23;;;;;;;2.15;1.80;;;;;;;15.91;58.04;96728.47;4898552;29;20057;-81
2022/09/02 03:15:51;;;;;;;2.17;2.00;;;;;;;15.86;57.63;96725.69;4898041;29;20483;-81
2022/09/02 03:18:19;;;;;;;2.00;1.90;;;;;;;15.82;57.76;96729.75;4898164;29;20044;-81
2022/09/02 03:20:47;;;;;;;7.03;2.30;;;;;;;15.77;57.86;96719.88;4898072;29;20088;-81
2022/09/02 03:23:17;;;;;;;2.63;2.42;;;;;;;15.78;59.54;96728.56;4908808;29;20036;-81
2022/09/02 03:25:46;;;;;;;2.35;2.15;;;;;;;15.76;58.26;96726.13;4921451;29;20060;-81
2022/09/02 03:28:14;;;;;;;2.80;2.28;;;;;;;15.74;58.16;96722.94;4919364;29;20044;-81
2022/09/02 03:30:42;;;;;;;2.47;2.28;;;;;;;15.73;58.38;96725.75;4900619;29;20091;-81
2022/09/02 03:33:09;;;;;;;3.03;2.30;;;;;;;15.69;58.12;96725.34;4899722;29;20059;-80
2022/09/02 03:35:40;;;;;;;3.10;2.05;;;;;;;15.66;59.56;96723.16;4898555;29;20048;-81
2022/09/02 03:38:08;;;;;;;2.65;2.45;;;;;;;15.73;61.40;96723.94;4897863;29;20052;-81
2022/09/02 03:40:38;;;;;;;2.35;2.17;;;;;;;15.79;59.93;96719.66;4897942;29;20052;-81
2022/09/02 03:43:06;;;;;;;4.97;2.80;;;;;;;15.78;58.68;96723.31;4898084;29;20061;-81
2022/09/02 03:45:34;;;;;;;2.78;2.58;;;;;;;15.73;59.22;96715.25;4897811;29;20060;-81
2022/09/02 03:48:03;;;;;;;4.13;3.30;;;;;;;15.68;58.72;96717.66;4898093;29;20109;-81
2022/09/02 03:50:35;;;;;;;2.40;2.28;;;;;;;15.67;62.21;96722.09;4897440;29;20072;-81
2022/09/02 03:53:03;;;;;;;3.85;3.15;;;;;;;15.68;59.21;96715.84;4897777;29;20072;-81
2022/09/02 03:55:31;;;;;;;3.28;2.97;;;;;;;15.68;59.78;96718.47;4897838;29;20103;-81
2022/09/02 03:58:00;;;;;;;2.88;2.60;;;;;;;15.71;62.80;96728.59;4897196;29;20100;-81
2022/09/02 04:00:33;;;;;;;2.67;2.47;;;;;;;15.75;61.14;96718.47;4927754;23;20056;-88
2022/09/02 04:03:02;;;;;;;5.05;2.60;;;;;;;15.72;59.43;96718.88;4909456;29;20102;-87
2022/09/02 04:05:30;;;;;;;2.53;2.33;;;;;;;15.71;61.85;96719.88;4908322;29;20113;-87
2022/09/02 04:07:59;;;;;;;2.70;2.47;;;;;;;15.75;60.33;96718.47;4908630;29;20048;-85
2022/09/02 04:10:27;;;;;;;3.75;2.28;;;;;;;15.79;61.43;96720.47;4907747;29;20060;-81
2022/09/02 04:12:54;;;;;;;4.90;2.28;;;;;;;15.84;61.49;96722.47;4907889;29;20476;-86
2022/09/02 04:15:24;;;;;;;5.18;2.65;;;;;;;15.79;59.67;96720.47;4908014;29;20104;-88
2022/09/02 04:17:51;;;;;;;2.58;2.38;;;;;;;15.78;59.72;96723.31;4907732;29;20080;-87
2022/09/02 04:20:19;;;;;;;2.58;2.22;;;;;;;15.79;60.11;96719.66;4907894;29;20072;-86
2022/09/02 04:22:46;;;;;;;4.07;2.90;;;;;;;15.75;59.52;96718.47;4907625;29;20053;-87
2022/09/02 04:25:14;;;;;;;4.45;3.50;;;;;;;15.73;59.39;96712.63;4908522;29;20076;-82
2022/09/02 04:27:42;;;;;;;3.42;2.40;;;;;;;15.74;61.40;96720.31;4907694;29;20049;-85
2022/09/02 04:30:10;;;;;;;3.95;3.53;;;;;;;15.73;59.37;96710.78;4906548;29;20089;-84
2022/09/02 04:32:39;;;;;;;3.22;2.88;;;;;;;15.68;58.78;96717.66;4907629;29;20095;-83
2022/09/02 04:35:07;;;;;;;3.20;2.50;;;;;;;15.56;59.10;96714.91;4907766;29;20498;-84
2022/09/02 04:37:35;;;;;;;3.47;2.22;;;;;;;15.52;61.39;96717.13;4910117;29;20079;-85
2022/09/02 04:40:04;;;;;;;2.63;2.40;;;;;;;15.53;60.47;96718.75;4910634;29;20144;-81
2022/09/02 04:42:31;;;;;;;2.70;2.33;;;;;;;15.53;59.92;96707.44;4909378;29;20080;-85
2022/09/02 04:44:59;;;;;;;2.20;2.00;;;;;;;15.54;61.18;96703.78;4910128;29;20080;-85
2022/09/02 04:47:27;;;;;;;3.40;2.33;;;;;;;15.50;59.59;96708.63;4910115;29;20415;-83
2022/09/02 04:49:57;;;;;;;3.30;2.45;;;;;;;15.41;59.86;96712.53;4908198;29;20081;-80
2022/09/02 04:52:25;;;;;;;3.00;2.53;;;;;;;15.35;59.94;96716.81;4907872;29;20087;-83
2022/09/02 04:54:52;;;;;;;2.92;2.70;;;;;;;15.33;59.96;96720.69;4909742;29;20104;-80
2022/09/02 04:57:20;;;;;;;4.22;2.50;;;;;;;15.32;60.50;96721.69;4909759;29;20068;-83
2022/09/02 04:59:48;;;;;;;5.35;3.03;;;;;;;15.33;60.52;96715.41;4909777;29;20533;-85
2022/09/02 05:02:17;;;;;;;2.80;2.50;;;;;;;15.34;60.15;96717.81;4909436;29;20084;-84
2022/09/02 05:04:45;;;;;;;2.45;2.10;;;;;;;15.36;60.98;96717.63;4910178;29;20059;-84
2022/09/02 05:07:14;;;;;;;2.38;2.17;;;;;;;15.41;62.30;96717.78;4910169;29;20069;-82
2022/09/02 05:09:42;;;;;;;3.75;2.60;;;;;;;15.45;60.69;96721.63;4910733;29;20077;-85
2022/09/02 05:12:10;;;;;;;2.55;2.13;;;;;;;15.45;62.43;96719.00;4910643;29;20455;-86
2022/09/02 05:14:38;;;;;;;2.40;2.10;;;;;;;15.50;60.88;96729.66;4909743;29;20162;-81
2022/09/02 05:17:06;;;;;;;2.60;2.38;;;;;;;15.48;59.94;96712.50;4909818;29;20105;-81
2022/09/02 05:19:34;;;;;;;6.65;2.13;;;;;;;15.43;59.65;96718.38;4910203;29;20048;-85
2022/09/02 05:22:03;;;;;;;2.85;2.58;;;;;;;15.38;59.82;96715.59;4909090;29;20048;-80
2022/09/02 05:24:32;;;;;;;2.60;2.38;;;;;;;15.39;60.63;96719.81;4910383;29;20081;-85
2022/09/02 05:27:00;;;;;;;5.45;2.47;;;;;;;15.39;59.86;96725.06;4909760;29;20112;-80
2022/09/02 05:29:28;;;;;;;3.33;2.22;;;;;;;15.43;61.45;96726.28;4909118;29;20056;-86
2022/09/02 05:31:56;;;;;;;2.50;2.30;;;;;;;15.47;60.87;96724.84;4909437;29;20503;-82
2022/09/02 05:34:24;;;;;;;2.47;2.28;;;;;;;15.51;60.59;96723.41;4909307;29;20052;-82
2022/09/02 05:36:52;;;;;;;2.20;2.00;;;;;;;15.52;60.34;96717.13;4909788;29;20056;-83
2022/09/02 05:39:20;;;;;;;5.32;2.10;;;;;;;15.52;60.05;96717.13;4910391;29;20143;-85
2022/09/02 05:41:49;;;;;;;2.30;2.10;;;;;;;15.55;60.44;96721.97;4908636;29;20087;-83
2022/09/02 05:44:17;;;;;;;3.40;2.20;;;;;;;15.54;59.58;96719.56;4908327;29;20056;-86
2022/09/02 05:46:44;;;;;;;2.70;2.20;;;;;;;15.50;60.00;96716.53;4907837;29;20077;-81
2022/09/02 05:49:17;;;;;;;2.53;2.30;;;;;;;15.51;60.47;96728.69;4909199;29;20067;-80
2022/09/02 05:51:47;;;;;;;4.15;2.33;;;;;;;15.51;61.24;96728.69;4908909;29;20049;-80
2022/09/02 05:54:17;;;;;;;2.97;1.90;;;;;;;15.56;62.63;96726.22;4908963;29;20095;-87
2022/09/02 05:56:51;;;;;;;2.08;1.98;;;;;;;15.60;60.98;96727.41;4909182;29;20089;-85
2022/09/02 05:59:20;;;;;;;2.40;2.20;;;;;;;15.64;61.33;96728.59;4906967;29;20080;-87
2022/09/02 06:01:48;;;;;;;3.85;2.45;;;;;;;15.66;60.00;96726.56;4907280;29;20156;-85
2022/09/02 06:04:16;;;;;;;4.47;2.70;;;;;;;15.69;60.08;96724.53;4906962;29;20135;-86
2022/09/02 06:06:43;;;;;;;4.13;2.20;;;;;;;15.70;59.53;96726.13;4906747;29;20048;-81
2022/09/02 06:09:13;;;;;;;3.10;2.05;;;;;;;15.77;62.21;96721.69;4906041;29;20576;-84
2022/09/02 06:11:43;;;;;;;3.63;1.95;;;;;;;15.78;60.01;96724.09;4905308;29;20128;-81
2022/09/02 06:14:13;;;;;;;3.47;2.67;;;;;;;15.77;59.25;96716.44;4907212;29;20060;-83
2022/09/02 06:16:42;;;;;;;2.33;2.13;;;;;;;15.77;59.74;96721.69;4907475;29;20467;-82
2022/09/02 06:19:10;;;;;;;2.13;1.92;;;;;;;15.80;60.08;96716.81;4910916;29;20044;-84
2022/09/02 06:21:38;;;;;;;2.03;1.83;;;;;;;15.86;60.16;96720.44;4912452;29;20064;-87
2022/09/02 06:24:07;;;;;;;3.03;2.25;;;;;;;15.90;59.73;96711.09;4906411;29;20069;-81
2022/09/02 06:26:36;;;;;;;3.08;1.80;;;;;;;15.93;59.29;96713.28;4905175;29;20048;-80
2022/09/02 06:29:05;;;;;;;3.33;2.08;;;;;;;15.94;58.88;96714.91;4904106;29;20464;-81
2022/09/02 06:31:34;;;;;;;3.42;2.13;;;;;;;15.97;58.71;96716.31;4903521;29;20127;-82
2022/09/02 06:34:03;;;;;;;1.90;1.80;;;;;;;16.00;58.73;96716.66;4903636;29;20045;-84
2022/09/02 06:36:31;;;;;;;5.25;1.95;;;;;;;16.06;58.47;96712.41;4903013;29;20116;-80
2022/09/02 06:39:00;;;;;;;3.22;1.90;;;;;;;16.10;58.23;96718.03;4903191;29;20053;-84
2022/09/02 06:41:32;;;;;;;2.90;2.28;;;;;;;16.14;58.11;96721.88;4903391;29;20074;-83
2022/09/02 06:44:02;;;;;;;3.27;2.33;;;;;;;16.20;58.22;96726.25;4904359;29;20423;-80
2022/09/02 06:46:37;;;;;;;3.08;1.70;;;;;;;16.29;58.31;96722.34;4903007;29;20378;-80
2022/09/02 06:49:06;;;;;;;3.23;1.80;;;;;;;16.39;57.81;96722.66;4903395;29;20049;-82
2022/09/02 06:51:37;;;;;;;3.08;1.75;;;;;;;16.48;57.52;96715.28;4903035;29;20139;-83
2022/09/02 06:54:06;;;;;;;1.77;1.60;;;;;;;16.55;57.19;96715.22;4904159;29;20499;-80
2022/09/02 06:56:34;;;;;;;2.60;1.73;;;;;;;16.60;57.13;96704.88;4903484;29;20048;-80
2022/09/02 06:59:03;;;;;;;3.67;1.63;;;;;;;16.67;56.72;96708.25;4906895;29;20431;-86
2022/09/02 07:01:32;;;;;;;1.95;1.70;;;;;;;16.72;56.47;96708.38;4910790;29;20141;-86
2022/09/02 07:06:44;;;;;;;3.85;1.95;;;;;;;16.92;56.37;96710.84;4880158;29;20084;-87
2022/09/02 07:09:15;;;;;;;3.55;2.00;;;;;;;17.04;56.23;96708.31;4910588;29;20060;-83
2022/09/02 07:11:46;;;;;;;3.50;1.98;;;;;;;17.12;55.70;96712.44;4911308;29;20468;-88
2022/09/02 07:14:14;;;;;;;1.92;1.70;;;;;;;17.25;55.72;96717.56;4910469;29;20048;-84
2022/09/02 07:16:45;;;;;;;1.67;1.50;;;;;;;17.38;55.46;96713.97;4910540;29;20072;-83
2022/09/02 07:19:15;;;;;;;2.63;1.70;;;;;;;17.54;55.10;96718.66;4910245;29;20088;-84
2022/09/02 07:21:48;;;;;;;2.20;1.50;;;;;;;17.68;55.41;96722.72;4909710;29;20056;-83
2022/09/02 07:24:17;;;;;;;3.22;1.67;;;;;;;17.82;54.09;96720.75;4908858;29;20048;-84
2022/09/02 07:26:45;;;;;;;3.08;1.40;;;;;;;17.91;53.86;96715.94;4909230;29;20072;-80
2022/09/02 07:29:13;;;;;;;3.20;1.70;;;;;;;18.04;54.14;96710.47;4908149;29;20048;-80
2022/09/02 07:31:43;;;;;;;7.30;1.70;;;;;;;18.21;53.30;96720.34;4906654;29;20487;-80
2022/09/02 07:34:13;;;;;;;2.75;1.50;;;;;;;18.37;53.24;96706.50;4908157;29;20084;-85
2022/09/02 07:36:44;;;;;;;3.75;1.30;;;;;;;18.56;53.17;96716.94;4907971;29;20091;-82
2022/09/02 07:39:13;;;;;;;2.83;1.25;;;;;;;18.72;52.73;96708.34;4906839;29;20049;-83
2022/09/02 07:41:43;;;;;;;2.47;1.70;;;;;;;18.88;51.27;96705.03;4906208;29;20053;-81
2022/09/02 07:44:12;;;;;;;4.30;1.40;;;;;;;19.04;51.30;96713.28;4905758;29;20526;-80
2022/09/02 07:46:41;;;;;;;4.03;1.33;;;;;;;19.19;49.59;96705.66;4905909;29;20056;-81
2022/09/02 07:49:14;;;;;;;1.27;1.10;;;;;;;19.33;49.33;96701.72;4905575;29;20041;-80
2022/09/02 07:51:48;;;;;;;1.60;1.45;;;;;;;19.48;48.50;96703.84;4903669;29;20115;-83
2022/09/02 07:54:18;;;;;;;1.63;1.42;;;;;;;19.68;48.46;96708.72;4903589;29;20080;-81
2022/09/02 07:56:45;;;;;;;1.35;1.20;;;;;;;19.93;47.93;96708.38;4902108;29;20147;-83
2022/09/02 07:59:13;;;;;;;4.20;1.00;;;;;;;20.24;47.16;96705.44;4901208;29;20048;-84
2022/09/02 08:01:42;;;;;;;2.53;1.23;;;;;;;20.51;46.02;96706.41;4900730;29;20430;-82
2022/09/02 08:04:17;;;;;;;3.72;1.17;;;;;;;20.84;45.37;96701.31;4900636;29;20111;-81
2022/09/02 08:06:46;;;;;;;2.67;1.02;;;;;;;21.23;45.00;96707.41;4900183;29;20049;-82
2022/09/02 08:09:14;;;;;;;2.20;0.80;;;;;;;21.71;43.63;96703.19;4901033;29;20108;-85
2022/09/02 08:11:45;;;;;;;1.63;0.70;;;;;;;22.17;42.14;96706.28;4906046;29;20083;-80
2022/09/02 08:14:16;;;;;;;1.98;1.00;;;;;;;22.53;41.38;96701.25;4907725;29;20053;-81
2022/09/02 08:16:45;;;;;;;2.97;0.82;;;;;;;22.91;41.95;96694.03;4908692;29;20052;-82
2022/09/02 08:19:15;;;;;;;1.00;0.90;;;;;;;23.40;40.21;96701.72;4911932;29;20044;-83
2022/09/02 08:21:42;;;;;;;3.58;0.90;;;;;;;23.74;38.91;96708.47;4917637;29;20087;-84
2022/09/02 08:24:11;;;;;;;2.58;0.90;;;;;;;24.05;38.14;96696.00;4917932;29;20076;-84
2022/09/02 08:26:39;;;;;;;2.08;0.70;;;;;;;24.38;37.08;96710.69;4918305;29;20500;-85
2022/09/02 08:29:08;;;;;;;3.58;1.00;;;;;;;24.69;36.66;96700.03;4916538;29;20116;-83
2022/09/02 08:31:36;;;;;;;0.80;0.80;;;;;;;25.03;36.18;96705.53;4917261;29;20053;-84
2022/09/02 08:34:05;;;;;;;2.22;0.90;;;;;;;25.28;34.87;96698.53;4916549;29;20120;-83
2022/09/02 08:36:33;;;;;;;0.98;0.50;;;;;;;25.39;34.75;96708.09;4915163;29;20097;-82
2022/09/02 08:39:02;;;;;;;1.75;0.80;;;;;;;25.54;33.80;96690.38;4913171;29;20049;-85
2022/09/02 08:41:38;;;;;;;4.00;0.95;;;;;;;25.72;32.57;96689.75;4913693;29;20072;-82
2022/09/02 08:44:07;;;;;;;0.93;0.63;;;;;;;25.95;32.17;96698.19;4913248;29;20427;-82
2022/09/02 08:46:35;;;;;;;2.65;0.70;;;;;;;26.16;31.97;96688.94;4913085;29;20407;-81
2022/09/02 08:49:08;;;;;;;1.08;0.70;;;;;;;26.37;30.93;96691.44;4913171;29;20072;-84
2022/09/02 08:51:41;;;;;;;1.27;0.50;;;;;;;26.51;30.83;96689.72;4911973;29;20057;-83
2022/09/02 08:54:20;;;;;;;1.65;0.60;;;;;;;26.78;29.86;96685.72;4911199;29;20052;-85
2022/09/02 08:56:50;;;;;;;3.03;0.77;;;;;;;27.05;30.07;96694.00;4910422;29;20084;-84
2022/09/02 08:59:21;;;;;;;1.45;0.60;;;;;;;27.38;30.03;96691.50;4910885;29;20101;-83
2022/09/02 09:01:56;;;;;;;1.15;0.82;;;;;;;27.67;28.53;96685.22;4912794;29;20120;-84
2022/09/02 09:04:43;;;;;;;1.20;0.52;;;;;;;28.06;28.38;96689.50;4916914;29;20081;-85
2022/09/02 09:07:24;;;;;;;1.10;0.70;;;;;;;28.43;27.25;96685.16;4919604;29;20108;-86
2022/09/02 09:10:02;;;;;;;0.73;0.55;;;;;;;28.62;27.03;96685.09;4918602;29;20056;-84
2022/09/02 09:12:48;;;;;;;1.08;0.60;;;;;;;28.87;27.03;96686.53;4916589;29;20060;-86
2022/09/02 09:15:22;;;;;;;0.88;0.50;;;;;;;29.24;25.85;96685.56;4916515;29;20480;-84
2022/09/02 09:17:56;;;;;;;1.38;0.55;;;;;;;29.43;24.84;96687.31;4919448;29;20052;-86
2022/09/02 09:20:27;;;;;;;2.03;0.60;;;;;;;29.64;24.66;96691.16;4919542;29;20054;-85
2022/09/02 09:22:56;;;;;;;1.58;0.57;;;;;;;29.72;24.12;96697.75;4912264;29;20100;-84
2022/09/02 09:25:28;;;;;;;1.25;0.60;;;;;;;29.91;24.62;96682.25;4910299;29;20198;-84
2022/09/02 09:27:58;;;;;;;1.48;0.47;;;;;;;30.31;23.51;96679.69;4909544;29;20067;-83
2022/09/02 09:30:26;;;;;;;2.20;0.50;;;;;;;30.58;23.76;96676.03;4909464;29;20052;-84
2022/09/02 09:32:56;;;;;;;2.85;0.65;;;;;;;30.88;23.21;96672.88;4911972;29;20053;-84
2022/09/02 09:35:25;;;;;;;0.30;0.30;;;;;;;31.15;22.92;96675.34;4912847;29;20073;-85
2022/09/02 09:37:53;;;;;;;2.10;0.57;;;;;;;31.13;22.56;96665.97;4914884;29;20108;-84
2022/09/02 09:40:32;;;;;;;2.72;0.73;;;;;;;31.12;22.08;96669.78;4914760;29;20085;-85
2022/09/02 09:43:13;;;;;;;2.28;0.50;;;;;;;31.09;22.41;96676.56;4917188;29;20554;-85
2022/09/02 09:45:44;;;;;;;0.25;0.25;;;;;;;31.00;22.23;96662.28;4916558;29;20040;-86
2022/09/02 09:48:22;;;;;;;1.05;0.70;;;;;;;30.66;22.78;96668.34;4916877;29;20534;-85
2022/09/02 09:51:15;;;;;;;1.75;0.70;;;;;;;30.37;22.34;96650.75;4916498;29;20061;-85
2022/09/02 09:53:44;;;;;;;1.83;0.32;;;;;;;30.06;22.80;96650.69;4915570;29;20438;-86
2022/09/02 09:56:37;;;;;;;2.80;0.50;;;;;;;29.35;22.73;96653.91;4915383;29;20044;-85
2022/09/02 09:59:30;;;;;;;0.90;0.40;;;;;;;28.89;22.70;96652.91;4946062;23;20063;-79
2022/09/02 10:01:59;;;;;;;0.65;0.40;;;;;;;28.54;24.22;96651.72;4914393;29;20048;-82
2022/09/02 10:04:32;;;;;;;2.83;0.70;;;;;;;28.42;23.92;96654.03;4899890;29;20061;-82
2022/09/02 10:07:36;;;;;;;0.77;0.30;;;;;;;27.95;22.97;96656.69;4920087;29;20067;-83
2022/09/02 10:10:16;;;;;;;1.65;0.40;;;;;;;27.41;23.79;96655.28;4923162;29;20032;-82
2022/09/02 10:12:47;;;;;;;0.40;0.40;;;;;;;26.95;24.82;96651.28;4920789;29;20056;-82
2022/09/02 10:15:28;;;;;;;0.90;0.50;;;;;;;26.66;25.43;96644.13;4909625;29;20059;-82
2022/09/02 10:18:06;;;;;;;0.65;0.38;;;;;;;26.52;26.10;96638.63;4909509;29;20059;-82
2022/09/02 10:20:49;;;;;;;0.32;0.20;;;;;;;26.46;26.31;96645.09;4918507;29;20116;-82
2022/09/02 10:23:45;;;;;;;2.88;0.60;;;;;;;26.49;26.24;96627.69;4918373;29;20057;-82
2022/09/02 10:26:25;;;;;;;2.95;0.75;;;;;;;26.40;25.22;96640.06;4911886;29;20052;-82
2022/09/02 10:29:08;;;;;;;1.08;0.40;;;;;;;26.28;25.81;96633.25;4912464;29;20048;-83
2022/09/02 10:31:44;;;;;;;2.40;0.70;;;;;;;26.24;25.26;96634.88;4910890;29;20053;-83
2022/09/02 10:34:20;;;;;;;2.28;0.63;;;;;;;26.15;25.73;96633.91;4909015;29;20085;-82
2022/09/02 10:37:09;;;;;;;0.40;0.40;;;;;;;26.05;25.29;96623.28;4910542;29;20116;-82
2022/09/02 10:39:58;;;;;;;0.38;0.38;;;;;;;25.92;26.13;96634.63;4908674;29;20063;-82
2022/09/02 10:42:34;;;;;;;1.10;0.40;;;;;;;25.85;26.77;96630.34;4911246;29;20060;-82
2022/09/02 10:45:13;;;;;;;1.23;0.30;;;;;;;25.70;26.89;96617.91;4911187;29;20056;-82
2022/09/02 10:47:46;;;;;;;0.85;0.47;;;;;;;25.74;27.68;96630.72;4910667;29;20143;-82
2022/09/02 10:50:21;;;;;;;4.18;0.50;;;;;;;25.76;26.90;96621.34;4912965;29;20053;-82
2022/09/02 10:53:00;;;;;;;0.65;0.38;;;;;;;25.73;26.61;96627.22;4912329;29;20055;-82
2022/09/02 10:55:40;;;;;;;1.73;0.68;;;;;;;25.60;27.26;96612.63;4914150;29;20053;-82
2022/09/02 10:58:16;;;;;;;3.45;0.40;;;;;;;25.57;28.14;96612.41;4912008;29;20056;-83
2022/09/02 11:00:51;;;;;;;1.25;0.70;;;;;;;25.62;27.66;96604.34;4912728;29;20079;-82
2022/09/02 11:03:27;;;;;;;0.70;0.60;;;;;;;25.72;27.71;96601.59;4913992;29;20058;-82
2022/09/02 11:06:05;;;;;;;0.50;0.50;;;;;;;25.79;26.74;96599.41;4914253;29;20052;-82
2022/09/02 11:08:39;;;;;;;1.85;0.55;;;;;;;25.78;27.42;96597.00;4913419;29;20115;-83
2022/09/02 11:11:14;;;;;;;1.15;0.70;;;;;;;25.80;27.17;96589.50;4914547;29;20049;-83
2022/09/02 11:13:56;;;;;;;0.63;0.50;;;;;;;25.76;27.82;96599.16;4914434;29;20059;-82
2022/09/02 11:16:32;;;;;;;1.45;0.60;;;;;;;25.74;27.57;96596.78;4913762;29;20063;-83
2022/09/02 11:19:12;;;;;;;1.05;0.40;;;;;;;25.68;27.19;96589.88;4912539;29;20068;-82
2022/09/02 11:21:50;;;;;;;0.32;0.30;;;;;;;25.54;27.51;96580.88;4914502;29;20080;-82
2022/09/02 11:24:26;;;;;;;0.68;0.50;;;;;;;25.53;28.15;96584.66;4915071;29;20057;-82
2022/09/02 11:27:04;;;;;;;0.60;0.50;;;;;;;25.53;27.80;96579.31;4915097;29;20059;-82
2022/09/02 11:30:02;;;;;;;1.98;0.50;;;;;;;25.44;27.64;96574.53;4914135;29;20055;-82
2022/09/02 11:32:39;;;;;;;0.95;0.75;;;;;;;25.42;27.91;96579.38;4913686;29;20063;-82
2022/09/02 11:35:14;;;;;;;1.02;0.65;;;;;;;25.37;28.14;96579.41;4914644;29;20112;-82
2022/09/02 11:37:49;;;;;;;0.85;0.60;;;;;;;25.31;28.01;96577.84;4912028;29;20063;-82
2022/09/02 11:40:27;;;;;;;0.93;0.47;;;;;;;25.25;27.85;96578.94;4913868;29;20108;-82
2022/09/02 11:43:22;;;;;;;1.90;0.38;;;;;;;25.15;27.73;96579.00;4912543;29;20072;-82
2022/09/02 11:46:13;;;;;;;1.77;0.60;;;;;;;25.02;28.07;96570.50;4911476;29;20053;-82
2022/09/02 11:49:05;;;;;;;0.88;0.47;;;;;;;24.94;28.81;96562.28;4909022;29;20052;-82
2022/09/02 11:51:59;;;;;;;0.47;0.43;;;;;;;24.96;28.89;96574.25;4911497;29;20506;-82
2022/09/02 11:54:35;;;;;;;0.60;0.30;;;;;;;24.89;28.51;96568.44;4910305;29;20104;-82
2022/09/02 11:57:05;;;;;;;1.40;0.75;;;;;;;24.79;28.73;96566.59;4910613;29;20496;-82